Tiempo atmosférico en la estación meteorológica de A Coruña Aeropuerto, A Coruña (98 m.)



Fecha
DESCASC
Temp. máxima en grados centígrados (hora)
DESCASC
Temp. mínima en grados centígrados (hora)
DESCASC
Temp. media en grados centígrados
DESCASC
Racha de viento máxima en m/sg (hora)
DESCASC
Velocidad máxima media en intervalos de 10 minutos(hora)
DESCASC
Precipitaciones diarias en mm
DESCASC
Precipitaciones de 00:00 a 06:00 en mm
DESCASC
Precipitaciones de 06:00 a 12:00 en mm
DESCASC
Precipitaciones de 12:00 a 18:00 en mm
DESCASC
Precipitaciones de 18:00 a 24:00 en mm
DESCASC
22-01-2020 13.2 (13:20) 8.9 (01:30) 11 10.28 (04:10) 6.39 (04:20) 0.5 0 0 0 0.5
21-01-2020 9.7 (13:10) 7 (00:10) 8.3 14.44 (07:30) 8.89 (14:20) 0 0 0 0 0
20-01-2020 10.8 (15:40) 6.5 (07:20) 8.7 18.89 (14:50) 12.22 (16:10) 0.1 0 0.1 0 0
19-01-2020 11.8 (13:30) 7.5 (00:00) 9.7 16.11 (23:00) 9.17 (23:00) 0 0 0 0 0
18-01-2020 13.4 (12:20) 8.7 (00:00) 11 17.5 (12:20) 8.89 (12:50) 14.8 0 1.4 3.9 9.5
17-01-2020 12.2 (14:40) 6.3 (00:00) 9.3 12.5 (05:30) 6.94 (05:30) 3.6 2.7 0.9 0 0
16-01-2020 15.8 (05:50) 8.5 (00:00) 12.2 22.78 (04:50) 13.33 (04:50) 54.8 4 12.3 36.3 2.2
15-01-2020 15.1 (00:10) 8.1 (00:00) 11.6 22.78 (00:10) 14.17 (00:20) 8.5 7.7 0.8 0 0
14-01-2020 15.9 (16:10) 11.5 (00:00) 13.7 24.72 (18:00) 14.72 (16:40) 0.3 0 0 0 0.3
13-01-2020 12.5 (14:40) 9.2 (00:00) 10.8 19.72 (15:00) 12.5 (15:10) 0 0 0 0 0
12-01-2020 13.5 (16:40) 3.3 (00:00) 8.4 8.33 (21:10) 5 (21:10) 0 0 0 0 0
11-01-2020 13.9 (15:50) 0.2 (00:00) 7 7.78 (06:50) 4.44 (14:30) 0 0 0 0 0
10-01-2020 12.6 (13:40) 3.6 (00:00) 8.1 8.33 (03:20) 5 (03:30) 0.2 0.2 0 0 0
09-01-2020 15.2 (11:20) 9.3 (00:00) 12.3 17.5 (12:50) 10.28 (12:50) 1.5 0 0.1 0.7 0.7
08-01-2020 15.4 (17:00) 10.4 (00:00) 12.9 9.17 (21:30) 7.5 (21:40) 0 0 0 0 0
07-01-2020 14.2 (14:40) 3.4 (00:00) 8.8 7.78 (18:40) 4.17 (16:40) 0 0 0 0 0
06-01-2020 13.2 (15:40) 1.3 (00:00) 7.2 10.28 (12:30) 4.72 (11:50) 0 0 0 0 0
05-01-2020 11.4 (16:30) -0.6 (-00:0) 5.4 6.11 (08:30) 3.61 (03:40) 0 0 0 0 0
04-01-2020 12.5 (15:50) 2.3 (00:00) 7.4 -- (--) -- (--) 0 0 0 0 0
03-01-2020 13.8 (13:10) 5.3 (00:00) 9.6 12.78 (02:30) 8.61 (02:50) 0.7 0 0.7 0 0
02-01-2020 11.7 (12:40) 1.7 (00:00) 6.7 13.33 (12:50) 6.67 (13:10) 0 0 0 0 0
01-01-2020 10.7 (15:50) 2.6 (00:00) 6.6 8.33 (07:20) 3.61 (07:00) 0 0 0 0 0
31-12-2019 13 (13:30) 8.8 (00:00) 10.9 6.11 (07:10) 3.89 (04:20) 0 0 0 0 0
30-12-2019 15.9 (14:20) 3.5 (00:00) 9.7 7.78 (06:50) 4.17 (22:40) 0 0 0 0 0
29-12-2019 19.2 (15:00) 3 (00:00) 11.1 6.11 (23:20) 4.44 (03:50) 0 0 0 0 0
28-12-2019 17.1 (16:30) 1.1 (00:00) 9.1 9.17 (13:10) 4.17 (07:40) 0 0 0 0 0
27-12-2019 14.6 (16:00) -0.3 (00:00) 7.2 7.22 (23:20) 3.89 (04:50) 0 0 0 0 0
26-12-2019 15 (15:00) 4 (00:00) 9.5 8.33 (00:30) 4.72 (00:30) 0 0 0 0 0
25-12-2019 18 (18:00) 10.2 (00:00) 14.1 16.94 (19:00) 9.72 (19:00) 0.2 0 0 0 0.2
24-12-2019 18.6 (15:20) 10.5 (00:00) 14.6 11.67 (11:50) 8.33 (11:50) 0 0 0 0 0

Gráficas

Temp. máximas Temp. mínimas Temp. medias Precipitaciones Rachas de viento máximas Velocidades máximas media en intervalos de 10 minutos

Datos horarios

Fecha y hora oficial Temperatura (ºC) Velocidad del viento (km/h) Dirección del viento Racha (km/h) Dirección de racha Precipitación (mm) Presión (hPa) Tendencia (hPa) Humedad (%)
2020-01-22 23:00:00 9.6 10 Norte 22 Nordeste 0 1007.2 -1.1 88
2020-01-22 22:00:00 10.2 13 Norte 24 Nordeste 0 1007.5 -0.8 82
2020-01-22 21:00:00 10.8 14 Nordeste 28 Nordeste 0 1008 -0.2 80
2020-01-22 20:00:00 11 8 Nordeste 22 Nordeste 0 1008.3 0 78
2020-01-22 19:00:00 11.5 17 Este 33 Este 0 1008.3 -0.4 74
2020-01-22 18:00:00 11.7 15 Nordeste 35 Nordeste 0 1008.2 -1.2 74
2020-01-22 17:00:00 12.2 13 Nordeste 32 Nordeste 0 1008.3 -2 71
2020-01-22 16:00:00 12.3 15 Nordeste 33 Este 0 1008.7 -2.5 70
2020-01-22 15:00:00 12.6 15 Nordeste 33 Este 0 1009.4 -2.2 70
2020-01-22 14:00:00 12.2 21 Nordeste 33 Nordeste 0 1010.3 -1.3 72
2020-01-22 13:00:00 12.5 16 Nordeste 32 Nordeste 0 1011.2 -0.5 71
2020-01-22 12:00:00 12.3 16 Nordeste 28 Nordeste 0 1011.6 0 69
2020-01-22 11:00:00 11.5 9 Nordeste 21 Norte 0 1011.6 0.1 74
2020-01-22 10:00:00 11.3 10 Nordeste 22 Nordeste 0 1011.7 0.1 73
2020-01-22 09:00:00 11.3 12 Nordeste 28 Este 0 1011.6 0 72
2020-01-22 08:00:00 11.4 15 Nordeste -- -- -- 1011.5 -0.4 70
2020-01-22 07:00:00 11.7 15 Nordeste 32 Este 0 1011.6 -0.7 67
2020-01-22 06:00:00 11.1 16 Este 32 Este 0 1011.6 -1.3 70
2020-01-22 05:00:00 10.9 19 Nordeste 37 Este 0 1011.9 -1.5 69
2020-01-22 04:00:00 10.3 18 Este 33 Este 0 1012.3 -1.6 71
2020-01-22 03:00:00 9.8 15 Este 33 Este 0 1012.9 -1.1 71
2020-01-22 02:00:00 9.4 6 Norte 15 Nordeste 0 1013.4 -0.9 68
2020-01-22 01:00:00 9.4 9 Este 33 Este 0 1013.9 -0.4 67
2020-01-22 00:00:00 9.3 14 Este 28 Este 0 1014 -0.5 68
2020-01-21 23:00:00 9.4 13 Nordeste 24 Este 0 1014.3 -0.2 68
2020-01-21 22:00:00 9.1 7 Norte 30 Nordeste 0 1014.3 0.6 67
2020-01-21 21:00:00 9.3 13 Este 41 Sudeste 0 1014.5 1.1 68
2020-01-21 20:00:00 9.4 17 Este 42 Este 0 1014.5 0.6 68
2020-01-21 19:00:00 9.4 24 Este 41 Este 0 1013.7 -0.7 65
2020-01-21 18:00:00 9.2 21 Nordeste 42 Este 0 1013.4 -1.7 66
2020-01-21 17:00:00 9.1 26 Nordeste 39 Nordeste 0 1013.9 -2.1 65
2020-01-21 16:00:00 9 25 Nordeste 39 Este 0 1014.4 -2.2 66
2020-01-21 15:00:00 8.9 25 Nordeste 52 Nordeste 0 1015.1 -2.5 69
2020-01-21 14:00:00 9.3 20 Nordeste 33 Nordeste 0 1016 -1.7 69
2020-01-21 13:00:00 9.5 18 Nordeste 46 Este 0 1016.6 -1.1 65
2020-01-21 12:00:00 9.1 18 Este 45 Este 0 1017.6 -0.1 65
2020-01-21 11:00:00 9.1 17 Este 35 Nordeste 0 1017.7 0 69
2020-01-21 10:00:00 8.7 13 Nordeste 37 Este 0 1017.7 0 68
2020-01-21 09:00:00 8.3 22 Este 45 Nordeste 0 1017.7 -0.2 67
2020-01-21 08:00:00 7.8 12 Nordeste 52 Este 0 1017.7 -0.7 69
2020-01-21 07:00:00 8.3 18 Este 41 Nordeste 0 1017.7 -1 67
2020-01-21 06:00:00 7.7 13 Nordeste 33 Este 0 1017.9 -1.3 69
2020-01-21 05:00:00 7.5 14 Nordeste 28 Nordeste 0 1018.4 -1.1 69
2020-01-21 04:00:00 7.5 16 Este 39 Nordeste 0 1018.7 -1.2 66
2020-01-21 03:00:00 7.7 12 Nordeste 32 Este 0 1019.2 -0.7 66
2020-01-21 02:00:00 7.5 14 Nordeste 41 Este 0 1019.5 -0.6 63
2020-01-21 01:00:00 7.5 18 Nordeste 32 Nordeste 0 1019.9 -0.4 62
2020-01-21 00:00:00 7.3 16 Este 46 Este 0 1019.9 0 58
2020-01-20 23:00:00 7.1 14 Este 37 Este 0 1020.1 -0.1 56
2020-01-20 22:00:00 7.2 19 Este 35 Nordeste 0 1020.3 0.6 52
2020-01-20 21:00:00 7.1 17 Este 48 Este 0 1019.9 0.4 54
2020-01-20 20:00:00 7.4 22 Este 54 Nordeste 0 1020.2 0.8 58
2020-01-20 19:00:00 8.1 29 Este 61 Este 0 1019.7 0.2 54
2020-01-20 18:00:00 8.9 35 Este 59 Este 0 1019.5 -0.6 52
2020-01-20 17:00:00 9.2 25 Este 67 Este 0 1019.4 -1.8 56
2020-01-20 16:00:00 9.9 34 Este 54 Nordeste 0 1019.5 -2.7 50
2020-01-20 15:00:00 10.3 38 Este 68 Este 0 1020.1 -2.5 44
2020-01-20 14:00:00 10.2 35 Este 65 Este 0 1021.2 -1.6 46
2020-01-20 13:00:00 9.3 31 Este 67 Este 0 1022.2 -0.4 54
2020-01-20 12:00:00 9.2 26 Este 50 Este 0 1022.6 -0.1 54
2020-01-20 11:00:00 8.7 20 Este 46 Nordeste 0 1022.8 0.3 56
2020-01-20 10:00:00 7.5 13 Este 39 Nordeste 0 1022.6 0 64
2020-01-20 09:00:00 7.3 21 Nordeste 41 Nordeste 0 1022.7 0.5 65
2020-01-20 08:00:00 7.1 12 Nordeste 42 Nordeste 0 1022.5 -0.3 64
2020-01-20 07:00:00 7 16 Este 35 Este 0.1 1022.6 -0.8 72
2020-01-20 06:00:00 7.7 17 Nordeste 52 Este 0 1022.2 -1.9 64
2020-01-20 05:00:00 7.7 14 Este 52 Nordeste 0 1022.8 -1.5 63
2020-01-20 04:00:00 8.2 17 Este 41 Este 0 1023.4 -1.7 53
2020-01-20 03:00:00 8.7 19 Este 46 Este 0 1024.1 -0.9 56
2020-01-20 02:00:00 8.6 26 Este 45 Este 0 1024.3 -0.4 56
2020-01-20 01:00:00 8.5 23 Este 48 Nordeste 0 1025.1 0.5 56
2020-01-20 00:00:00 8.4 26 Este 42 Este 0 1025 0.4 55
2020-01-19 23:00:00 8.2 33 Este 58 Este 0 1024.7 0.2 56
2020-01-19 22:00:00 8.2 30 Nordeste 46 Nordeste 0 1024.6 0.5 57
2020-01-19 21:00:00 8 22 Nordeste 41 Este 0 1024.6 1.2 59
2020-01-19 20:00:00 8.3 27 Este 42 Nordeste 0 1024.5 1.4 57
2020-01-19 19:00:00 8.6 22 Este 42 Este 0 1024.1 1.1 58
2020-01-19 18:00:00 9.5 19 Este 54 Este 0 1023.4 1 57
2020-01-19 17:00:00 10.4 19 Este 46 Este 0 1023.1 0.2 52
2020-01-19 16:00:00 11.1 23 Nordeste 45 Nordeste 0 1023 -0.4 52
2020-01-19 15:00:00 11.6 24 Nordeste 45 Nordeste 0 1022.4 -0.9 52
2020-01-19 14:00:00 11.5 28 Nordeste 54 Este 0 1022.9 0.2 54
2020-01-19 13:00:00 11.6 26 Este 50 Este 0 1023.4 1 57
2020-01-19 12:00:00 10.7 19 Nordeste 37 Este 0 1023.3 2 64
2020-01-19 11:00:00 9.9 22 Nordeste 41 Nordeste 0 1022.7 2.4 67
2020-01-19 10:00:00 9.1 19 Nordeste 37 Norte 0 1022.4 3.2 69
2020-01-19 09:00:00 8.7 20 Nordeste 42 Nordeste 0 1021.3 3 68
2020-01-19 08:00:00 8.9 22 Nordeste 33 Nordeste 0 1020.3 2.3 73
2020-01-19 07:00:00 9.3 23 Nordeste 45 Nordeste 0 1019.2 2.4 77
2020-01-19 06:00:00 9.5 18 Nordeste 42 Nordeste 0 1018.3 2.2 77
2020-01-19 05:00:00 9.7 24 Nordeste 39 Nordeste 0 1018 2.8 78
2020-01-19 04:00:00 9.9 21 Nordeste 33 Nordeste 0 1016.8 2.7 79
2020-01-19 03:00:00 9.9 17 Norte 46 Norte 0 1016.1 2.9 88
2020-01-19 02:00:00 10.6 17 Norte 42 Nordeste 0 1015.2 3 84
2020-01-19 01:00:00 9.9 21 Norte 42 Norte 0 1014.1 2.8 94
2020-01-19 00:00:00 10.4 20 Norte 33 Norte 0 1013.2 3.3 82
2020-01-18 23:00:00 10.4 14 Norte 33 Norte 0 1012.2 3.1 81
2020-01-18 22:00:00 10.3 12 Norte 30 Norte 0 1011.3 2.7 88
2020-01-18 21:00:00 10.5 15 Norte 30 Norte 0.3 1009.9 1.7 95
2020-01-18 20:00:00 9.9 9 Norte 28 Oeste 8.4 1009.1 0.9 96
2020-01-18 19:00:00 9.8 13 Oeste 32 Oeste 0.8 1008.6 0.4 89
2020-01-18 18:00:00 10.4 19 Oeste 35 Oeste 0.4 1008.2 0.7 85
2020-01-18 17:00:00 11 16 Oeste 46 Oeste 0 1008.2 0.3 82
2020-01-18 16:00:00 9.5 31 Noroeste 63 Noroeste 1.9 1008.2 0.1 88
2020-01-18 15:00:00 13.3 25 Noroeste 42 Noroeste 0 1007.5 0.1 61
2020-01-18 14:00:00 12.5 24 Noroeste 45 Noroeste 0 1007.9 1.1 71
2020-01-18 13:00:00 11 22 Noroeste 63 Noroeste 1.6 1008.1 1.5 90
2020-01-18 12:00:00 12.7 24 Oeste 58 Oeste 1.4 1007.4 0.9 90
2020-01-18 11:00:00 12.5 15 Sur 32 Sur 0 1006.8 -0.1 86
2020-01-18 10:00:00 11.5 18 Sur 33 Sudoeste 0 1006.6 -0.7 83
2020-01-18 09:00:00 11 20 Sur 41 Sur 0 1006.5 -2.1 78
2020-01-18 08:00:00 10.7 28 Sur 42 Sudoeste 0 1006.9 -2.5 73
2020-01-18 07:00:00 10.9 25 Sur 45 Sur 0 1007.3 -3.6 67
2020-01-18 06:00:00 10.5 23 Sur 42 Sur 0 1008.6 -3.5 63
2020-01-18 05:00:00 10.1 23 Sur 37 Sur 0 1009.4 -3.5 65
2020-01-18 04:00:00 10 27 Sur 35 Sur 0 1010.9 -3 63
2020-01-18 03:00:00 10 19 Sudeste 26 Sudeste 0 1012.1 -2.9 64
2020-01-18 02:00:00 9.9 16 Sur 33 Sur 0 1012.9 -3.7 66
2020-01-18 01:00:00 9.6 15 Sur 37 Sudeste 0 1013.9 -3.2 69
2020-01-18 00:00:00 8.7 24 Sudeste 33 Sur 0 1015 -2.6 78
2020-01-17 23:00:00 8.4 5 Sudeste 17 Sur 0 1016.6 -1.4 80
2020-01-17 22:00:00 8.3 13 Sudeste 41 Sur 0 1017.1 -1.1 84
2020-01-17 21:00:00 8.4 9 Sur 17 Sudeste 0 1017.6 -0.6 84
2020-01-17 20:00:00 8.9 7 Sur 13 Sur 0 1018 -0.4 79
2020-01-17 19:00:00 9 9 Sur 17 Sur 0 1018.2 -0.4 79
2020-01-17 18:00:00 9.4 6 Sudeste 15 Sur 0 1018.2 -0.4 79
2020-01-17 17:00:00 10.2 5 Sur 11 Oeste 0 1018.4 -0.3 73
2020-01-17 16:00:00 10.3 9 Oeste 32 Oeste 0 1018.6 -0.3 70
2020-01-17 15:00:00 11.7 12 Oeste 28 Sudoeste 0 1018.6 -0.3 63
2020-01-17 14:00:00 11.4 13 Sudoeste 22 Sudoeste 0 1018.7 0.7 65
2020-01-17 13:00:00 11.3 12 Sudoeste 33 Sudeste 0 1018.9 1.8 69
2020-01-17 12:00:00 9.2 13 Sudoeste 21 Sudoeste 0 1018.9 2.8 78
2020-01-17 11:00:00 7.4 14 Sudoeste 28 Sudoeste 0 1018 2.6 84
2020-01-17 10:00:00 6.8 9 Oeste 30 Sudoeste 0.3 1017.1 2.8 86
2020-01-17 09:00:00 7.7 14 Sudoeste 32 Oeste 0.5 1016.1 2.6 80
2020-01-17 08:00:00 8.1 13 Oeste 26 Oeste 0 1015.4 3.5 79
2020-01-17 07:00:00 8 15 Oeste 30 Oeste 0.1 1014.3 2.7 83
2020-01-17 06:00:00 7.9 16 Oeste 45 Oeste 2.4 1013.5 2.6 85
2020-01-17 05:00:00 8.4 11 Sudoeste 22 Oeste 0 1011.9 1.9 79
2020-01-17 04:00:00 9.2 14 Sudoeste 33 Sudoeste 0.3 1011.6 2 78
2020-01-17 03:00:00 8.6 11 Sur 21 Sudoeste 0 1010.9 2 83
2020-01-17 02:00:00 8.7 13 Sur 37 Noroeste 0 1010 1.7 80
2020-01-17 01:00:00 8.8 8 Sur 28 Sudoeste 0 1009.6 2.7 82
2020-01-17 00:00:00 8.6 20 Sudoeste 46 Oeste 2.2 1008.9 2.4 88
2020-01-16 23:00:00 9.9 15 Oeste 37 Oeste 0 1008.3 2.6 86
2020-01-16 22:00:00 10.3 19 Sudoeste 33 Sur 0 1006.9 2.5 85
2020-01-16 21:00:00 10.5 19 Sudoeste 30 Sudoeste 0 1006.5 2.8 85
2020-01-16 20:00:00 9.7 15 Sur 37 Sudoeste 0 1005.7 3 87
2020-01-16 19:00:00 9.9 27 Sudoeste 35 Sudoeste 0 1004.4 2 86
2020-01-16 18:00:00 10.5 28 Sudoeste 41 Sudoeste 1.4 1003.7 2.6 85
2020-01-16 17:00:00 10.5 17 Sur 48 Sudoeste 4.4 1002.7 0.1 89
2020-01-16 16:00:00 11.7 14 Oeste 41 Sur 10.8 1002.4 -0.2 91
2020-01-16 15:00:00 11.9 20 Sur 48 Sur 6.9 1001.1 -0.1 89
2020-01-16 14:00:00 11.3 21 Sudoeste 42 Sur 5.5 1002.6 0.6 89
2020-01-16 13:00:00 12.8 25 Sudoeste 58 Sur 7.3 1002.6 0.8 87
2020-01-16 12:00:00 14.1 33 Sur 48 Sudoeste 5.2 1001.2 -0.3 86
2020-01-16 11:00:00 14.3 31 Sur 58 Sur 3.2 1002 1.1 84
2020-01-16 10:00:00 14 33 Sur 68 Sur 3.6 1001.8 1 86
2020-01-16 09:00:00 15.6 39 Sur 78 Sur 0 1001.5 0.5 72
2020-01-16 08:00:00 14.9 37 Sur 76 Sur 0.1 1000.9 -0.8 79
2020-01-16 07:00:00 15.3 32 Sur 61 Sudoeste 0.2 1000.8 -1.8 76
2020-01-16 06:00:00 15.7 30 Sur 71 Sudoeste 0 1001 -1.5 75
2020-01-16 05:00:00 15.2 45 Sur 82 Sur 2.2 1001.7 -1.8 79
2020-01-16 04:00:00 14.7 29 Sur 52 Sur 1.8 1002.6 -1.2 88
2020-01-16 03:00:00 13.8 22 Sur 45 Sur 0 1002.5 -2.4 83
2020-01-16 02:00:00 14.2 22 Sur 55 Sur 0 1003.5 -1.4 69
2020-01-16 01:00:00 14.3 32 Sur 59 Sur 0 1003.8 -1.4 68
2020-01-16 00:00:00 13.2 12 Sur 32 Sur 0 1004.9 -1 82
2020-01-15 23:00:00 10.6 2 Noroeste 8 Oeste 0 1004.9 -1.5 82
2020-01-15 22:00:00 10.1 6 Sur 17 Sur 0 1005.2 -1.2 84
2020-01-15 21:00:00 10.4 0 Calma 9 Sur 0 1005.9 -0.6 82
2020-01-15 20:00:00 10.9 5 Sur 11 Sur 0 1006.4 0.2 78
2020-01-15 19:00:00 11.4 5 Sur 15 Sur 0 1006.4 0.3 73
2020-01-15 18:00:00 13 11 Sur 24 Sur 0 1006.5 0.2 65
2020-01-15 17:00:00 14 18 Sudoeste 32 Sudoeste 0 1006.2 -0.3 61
2020-01-15 16:00:00 14.3 18 Sudoeste 30 Sur 0 1006.1 -0.6 59
2020-01-15 15:00:00 14.5 18 Sudoeste 28 Sur 0 1006.3 -0.6 59
2020-01-15 14:00:00 13.9 12 Sudoeste 18 Sudoeste 0 1006.5 0.1 61
2020-01-15 13:00:00 13.1 10 Sudoeste 17 Sudoeste 0 1006.7 1.7 62
2020-01-15 12:00:00 12.4 12 Sudoeste 17 Sudoeste 0 1006.9 3.1 72
2020-01-15 11:00:00 11.1 11 Sudoeste 15 Sudoeste 0 1006.4 4.4 81
2020-01-15 10:00:00 8.4 10 Sudoeste 13 Sudoeste 0 1005 4.7 94
2020-01-15 09:00:00 9.9 8 Sudoeste 15 Oeste 0 1003.8 5 88
2020-01-15 08:00:00 10.3 9 Oeste 28 Noroeste 0 1002 4.5 88
2020-01-15 07:00:00 10.7 15 Oeste 33 Oeste 0.8 1000.3 4.5 90
2020-01-15 06:00:00 11.1 15 Noroeste 42 Oeste 1.5 998.8 4.1 91
2020-01-15 05:00:00 13 16 Oeste 55 Sudoeste 0.1 997.5 3.2 80
2020-01-15 04:00:00 12.6 36 Sudoeste 76 Sudoeste 4.5 995.8 0.5 83
2020-01-15 03:00:00 13.3 33 Sur 80 Sur 1.4 994.7 -0.8 84
2020-01-15 02:00:00 14.9 43 Sur 82 Sudoeste 0.1 994.3 -1.3 69
2020-01-15 01:00:00 14.3 47 Sudoeste 82 Sudoeste 0.1 995.3 -1.4 75
2020-01-15 00:00:00 15 49 Sur 74 Sur 0 995.5 -1.6 69
2020-01-14 23:00:00 14.3 40 Sur 67 Sur 0 995.6 -1.8 72
2020-01-14 22:00:00 13.9 34 Sur 68 Sur 0 996.7 -1.1 75
2020-01-14 21:00:00 13 34 Sur 59 Sur 0.3 997.1 -0.6 79
2020-01-14 20:00:00 13.8 40 Sur 71 Sudoeste 0 997.4 -0.2 73
2020-01-14 19:00:00 14.3 42 Sur 76 Sur 0 997.8 0.2 69
2020-01-14 18:00:00 14.4 34 Sudoeste 89 Sur 0 997.7 -0.3 71
2020-01-14 17:00:00 15.4 45 Sudoeste 87 Sur 0 997.6 -0.6 65
2020-01-14 16:00:00 15.6 46 Sur 72 Sudoeste 0 997.6 -1.9 64
2020-01-14 15:00:00 15.5 42 Sudoeste 82 Sur 0 998 -2.4 63
2020-01-14 14:00:00 14.9 36 Sur 71 Sudoeste 0 998.2 -1.9 66
2020-01-14 13:00:00 14.2 37 Sur 61 Sur 0 999.5 -0.6 69
2020-01-14 12:00:00 13.5 36 Sur 59 Sur 0 1000.4 0.4 71
2020-01-14 11:00:00 13.1 32 Sur 61 Sur 0 1000.1 0.3 74
2020-01-14 10:00:00 13.1 32 Sur 65 Sur 0 1000.1 0.8 74
2020-01-14 09:00:00 13.1 34 Sur 65 Sur 0 1000 0.5 76
2020-01-14 08:00:00 13 32 Sur 59 Sur 0 999.8 0.1 77
2020-01-14 07:00:00 12.5 32 Sur 68 Sur 0 999.3 -0.4 80
2020-01-14 06:00:00 12.3 31 Sur 67 Sur 0 999.5 -0.6 82
2020-01-14 05:00:00 12.3 37 Sur 74 Sudoeste 0 999.7 -1.1 81
2020-01-14 04:00:00 12.4 35 Sur 63 Sudoeste 0 999.7 -1.7 81
2020-01-14 03:00:00 12.4 35 Sur 67 Sur 0 1000.1 -1.4 80
2020-01-14 02:00:00 12.4 35 Sur 65 Sur 0 1000.8 -1.2 82
2020-01-14 01:00:00 12.3 39 Sur 68 Sur 0 1001.4 -0.9 81
2020-01-14 00:00:00 11.5 26 Sur 48 Sudoeste 0 1001.5 -1.1 87
2020-01-13 23:00:00 11.3 29 Sur 50 Sudoeste 0 1002 -0.9 86
2020-01-13 22:00:00 10.9 25 Sur 50 Sur 0 1002.3 -0.8 86
2020-01-13 21:00:00 10.6 33 Sur 65 Sur 0 1002.6 -0.3 84
2020-01-13 20:00:00 10.7 31 Sur 58 Sur 0 1002.9 -0.2 81
2020-01-13 19:00:00 10.4 28 Sur 58 Sur 0 1003.1 -0.9 82
2020-01-13 18:00:00 10.8 40 Sur 59 Sur 0 1002.9 -1.3 76
2020-01-13 17:00:00 11.4 32 Sur 67 Sur 0 1003.1 -2.2 72
2020-01-13 16:00:00 12.3 35 Sur 67 Sudoeste 0 1004 -2.5 67
2020-01-13 15:00:00 12.4 39 Sur 71 Sur 0 1004.2 -3.1 66
2020-01-13 14:00:00 11.7 37 Sur 67 Sur 0 1005.3 -2.8 67
2020-01-13 13:00:00 11.6 33 Sur 65 Sur 0 1006.5 -2.3 71
2020-01-13 12:00:00 10.6 34 Sur 54 Sur 0 1007.3 -1.6 73
2020-01-13 11:00:00 10.5 37 Sur 59 Sur 0 1008.1 -0.6 74
2020-01-13 10:00:00 9.4 29 Sur 50 Sur 0 1008.8 -0.5 77
2020-01-13 09:00:00 9.4 32 Sur 46 Sudoeste 0 1008.9 -1 80
2020-01-13 08:00:00 9.5 28 Sur 41 Sur 0 1008.7 -2.6 80
2020-01-13 07:00:00 9.8 20 Sur 54 Sudoeste 0 1009.3 -2.7 77
2020-01-13 06:00:00 10 19 Sur 33 Sudoeste 0 1009.9 -2.4 73
2020-01-13 05:00:00 10.3 21 Sudoeste 33 Oeste 0 1011.3 -2 75
2020-01-13 04:00:00 10.4 18 Oeste 35 Oeste 0 1012 -2.5 77
2020-01-13 03:00:00 9.9 11 Sudoeste 32 Sudoeste 0 1012.3 -3.1 82
2020-01-13 02:00:00 10.2 20 Sudoeste 30 Oeste 0 1013.3 -2.2 80
2020-01-13 01:00:00 9.7 8 Sudeste 17 Sudeste 0 1014.5 -1.3 83
2020-01-13 00:00:00 10.4 6 Sudeste 26 Sur 0 1015.4 -0.7 81
2020-01-12 23:00:00 10.6 3 Sudeste 17 Sudeste 0 1015.5 -0.9 80
2020-01-12 22:00:00 11 12 Sudeste 30 Sudoeste 0 1015.8 -0.8 78
2020-01-12 21:00:00 11.3 16 Sudoeste 28 Sudoeste 0 1016.1 -0.3 77
2020-01-12 20:00:00 11.7 5 Sur 17 Oeste 0 1016.4 -0.2 79
2020-01-12 19:00:00 12.2 7 Sudoeste 17 Sur 0 1016.6 -0.1 77
2020-01-12 18:00:00 12.8 6 Sudoeste 13 Sudoeste 0 1016.4 -0.7 77
2020-01-12 17:00:00 13.4 4 Sudeste 26 Sudeste 0 1016.6 -1.4 73
2020-01-12 16:00:00 12.9 8 Sudeste 17 Sudeste 0 1016.7 -2.2 73
2020-01-12 15:00:00 12.4 10 Sur 17 Sur 0 1017.1 -2.5 73
2020-01-12 14:00:00 11.5 10 Sur 22 Oeste 0 1018 -1.5 83
2020-01-12 13:00:00 11.1 11 Sur 21 Sur 0 1018.9 -0.2 80
2020-01-12 12:00:00 10.2 11 Sur 17 Sur 0 1019.6 0.9 79
2020-01-12 11:00:00 9.1 7 Sudeste 9 Sudeste 0 1019.5 1 82
2020-01-12 10:00:00 8 8 Sur 28 Sudeste 0 1019.1 0.8 84
2020-01-12 09:00:00 7.2 10 Sur 15 Sur 0 1018.7 0.5 84
2020-01-12 08:00:00 6.4 10 Sur 13 Sur 0 1018.5 0.1 87
2020-01-12 07:00:00 5.9 10 Sur 22 Sur 0 1018.3 0 88
2020-01-12 06:00:00 5.2 7 Sur 15 Sur 0 1018.2 -0.2 91
2020-01-12 05:00:00 4.4 5 Sur 15 Sur 0 1018.4 -0.4 92
2020-01-12 04:00:00 3.8 13 Sur 17 Sur 0 1018.3 -0.7 92
2020-01-12 03:00:00 3.8 10 Sur 13 Sudeste 0 1018.4 -0.9 92
2020-01-12 02:00:00 3.7 2 Sur 9 Sur 0 1018.8 -0.7 93
2020-01-12 01:00:00 3.5 5 Oeste 13 Sudeste 0 1019 -0.6 95
2020-01-12 00:00:00 3.3 11 Sur 24 Sur 0 1019.3 -0.1 95
2020-01-11 23:00:00 3.9 10 Sur 21 Sur 0 1019.5 0.1 95
2020-01-11 22:00:00 5.1 10 Sur 15 Sur 0 1019.6 0.8 95
2020-01-11 21:00:00 6 10 Sur 13 Sur 0 1019.4 0.9 93
2020-01-11 20:00:00 7.8 5 Sur 11 Sur 0 1019.4 1.1 89
2020-01-11 19:00:00 8.9 6 Sur 9 Sur 0 1018.8 0.9 83
2020-01-11 18:00:00 10.4 0 Calma 13 Norte 0 1018.5 0.7 79
2020-01-11 17:00:00 11.5 9 Norte 15 Norte 0 1018.3 -0.3 70
2020-01-11 16:00:00 12.3 10 Norte 17 Sur 0 1017.9 -1.8 61
2020-01-11 15:00:00 13 12 Sur 24 Sudoeste 0 1017.8 -2.7 55
2020-01-11 14:00:00 12.6 12 Sudoeste 18 Sur 0 1018.6 -1.6 56
2020-01-11 13:00:00 10.6 6 Sudeste 21 Sudeste 0 1019.7 -0.2 67
2020-01-11 12:00:00 7.8 9 Sur 22 Sudeste 0 1020.5 1 79
2020-01-11 11:00:00 3.5 11 Sur 22 Sur 0 1020.2 0.3 93
2020-01-11 10:00:00 1.3 11 Sur 13 Sur 0 1019.9 0.1 97
2020-01-11 09:00:00 1 10 Sur 15 Sur 0 1019.5 -0.3 98
2020-01-11 08:00:00 0.8 10 Sur 28 Sur 0 1019.9 0 98
2020-01-11 07:00:00 0.5 10 Sur 28 Sudeste 0 1019.8 -0.6 98
2020-01-11 06:00:00 1.2 8 Sur 13 Sur 0 1019.8 -0.8 98
2020-01-11 05:00:00 1.1 10 Sur 13 Sur 0 1019.9 -1 98
2020-01-11 04:00:00 1.4 8 Sur 13 Sur 0 1020.4 -0.9 98
2020-01-11 03:00:00 1.9 8 Sur 13 Sur 0 1020.6 -1.1 98
2020-01-11 02:00:00 2.6 7 Sur 13 Sur 0 1020.9 -0.8 98
2020-01-11 01:00:00 3.4 8 Sur 13 Sur 0 1021.3 -0.3 98
2020-01-11 00:00:00 3.8 9 Sur 17 Sur 0 1021.7 0.2 97
2020-01-10 23:00:00 4.8 8 Sur 15 Sur 0 1021.7 0.5 97
2020-01-10 22:00:00 5.6 9 Sur 18 Sur 0 1021.6 0.9 95
2020-01-10 21:00:00 6.5 3 Sudeste 9 Sudeste 0 1021.5 1 91
2020-01-10 20:00:00 7.6 3 Noroeste 8 Noroeste 0 1021.2 0.9 87
2020-01-10 19:00:00 8.8 5 Noroeste 8 Noroeste 0 1020.7 0.5 83
2020-01-10 18:00:00 10.2 5 Noroeste 13 Norte 0 1020.5 0 78
2020-01-10 17:00:00 11.3 7 Norte 15 Norte 0 1020.3 -0.6 71
2020-01-10 16:00:00 11.8 7 Norte 13 Norte 0 1020.2 -1.5 68
2020-01-10 15:00:00 11.7 7 Norte 13 Norte 0 1020.5 -1.9 67
2020-01-10 14:00:00 12.3 2 Norte 13 Sudeste 0 1020.9 -0.5 69
2020-01-10 13:00:00 11.8 3 Sudeste 15 Sudeste 0 1021.7 0.5 75
2020-01-10 12:00:00 8 6 Sur 18 Sur 0 1022.4 1.9 91
2020-01-10 11:00:00 6.7 4 Sur 15 Sur 0 1021.4 1.1 94
2020-01-10 10:00:00 4.6 8 Sur 13 Sur 0 1021.2 1.1 97
2020-01-10 09:00:00 4.3 8 Sur 13 Sur 0 1020.5 1 96
2020-01-10 08:00:00 5.2 10 Sur 13 Sur 0 1020.3 1.7 95
2020-01-10 07:00:00 6 6 Sur 13 Sur 0 1020.1 1.6 92
2020-01-10 06:00:00 5.7 9 Sur 13 Sur 0 1019.5 1.5 92
2020-01-10 05:00:00 6 5 Sur 17 Norte 0 1018.6 0.7 92
2020-01-10 04:00:00 9.1 7 Noroeste 30 Norte 0.2 1018.5 0.8 81
2020-01-10 03:00:00 9.7 10 Noroeste 26 Norte 0 1018 0.3 76
2020-01-10 02:00:00 9.6 14 Norte 26 Norte 0 1017.9 0.4 75
2020-01-10 01:00:00 9 11 Noroeste 21 Oeste 0 1017.7 0.6 76
2020-01-10 00:00:00 9.5 14 Oeste 33 Oeste 0 1017.7 1.1 67
2020-01-09 23:00:00 9.7 9 Noroeste 21 Oeste 0 1017.5 1.8 72
2020-01-09 22:00:00 9.9 22 Noroeste 42 Noroeste 0 1017.1 2.1 75
2020-01-09 21:00:00 9.9 13 Oeste 26 Noroeste 0.4 1016.6 2.2 78
2020-01-09 20:00:00 10.5 11 Oeste 22 Oeste 0.3 1015.7 1.8 71
2020-01-09 19:00:00 10.7 14 Oeste 30 Oeste 0 1015 1.7 70
2020-01-09 18:00:00 10.8 15 Oeste 32 Noroeste 0 1014.4 1.6 72
2020-01-09 17:00:00 11.7 17 Oeste 41 Noroeste 0 1013.9 1.8 67
2020-01-09 16:00:00 11.9 22 Noroeste 46 Oeste 0 1013.3 1.9 70
2020-01-09 15:00:00 11.8 14 Oeste 45 Noroeste 0 1012.8 1.8 72
2020-01-09 14:00:00 11.2 29 Noroeste 52 Oeste 0.1 1012.1 2.4 79
2020-01-09 13:00:00 11.8 26 Oeste 63 Oeste 0.6 1011.4 1.6 85
2020-01-09 12:00:00 14.9 21 Oeste 48 Oeste 0.1 1011 0.9 76
2020-01-09 11:00:00 14.6 19 Sudoeste 33 Sur 0 1009.7 -0.5 84
2020-01-09 10:00:00 13.8 20 Sur 35 Sur 0 1009.8 -0.6 87
2020-01-09 09:00:00 13.7 20 Sur 45 Sudoeste 0 1010.1 -0.8 87
2020-01-09 08:00:00 14.1 31 Sur 58 Sur 0 1010.2 -1.3 83
2020-01-09 07:00:00 13.8 26 Sur 48 Sur 0 1010.4 -2.2 84
2020-01-09 06:00:00 13.7 33 Sudoeste 46 Sudoeste 0 1010.9 -1.6 84
2020-01-09 05:00:00 13.1 17 Sur 32 Sur 0 1011.5 -1.1 87
2020-01-09 04:00:00 13.5 18 Sur 41 Sudoeste 0 1012.6 -0.7 86
2020-01-09 03:00:00 13.3 26 Sudoeste 45 Sudoeste 0 1012.5 -1.5 87
2020-01-09 02:00:00 13.3 30 Sudoeste 42 Sudoeste 0 1012.6 -1.9 88
2020-01-09 01:00:00 13.3 24 Sudoeste 37 Sudoeste 0 1013.3 -1.6 87
2020-01-09 00:00:00 13.4 18 Sudoeste 33 Sudoeste 0 1014 -1.1 86
2020-01-08 23:00:00 13.2 10 Sur 24 Sur 0 1014.5 -1.2 87
2020-01-08 22:00:00 13.5 13 Sur 33 Sudoeste 0 1014.9 -1 86
2020-01-08 21:00:00 13.6 13 Sur 24 Sudeste 0 1015.1 -0.7 87
2020-01-08 20:00:00 14.2 11 Sur 21 Sur 0 1015.7 -0.1 85
2020-01-08 19:00:00 14.4 12 Sur 22 Sur 0 1015.9 0 83
2020-01-08 18:00:00 15 6 Sur 26 Sur 0 1015.8 -0.3 83
2020-01-08 17:00:00 15.3 10 Sur 28 Sur 0 1015.8 -0.9 83
2020-01-08 16:00:00 15.1 9 Sur 17 Sudeste 0 1015.9 -1.7 85
2020-01-08 15:00:00 15.1 11 Sur 21 Sudoeste 0 1016.1 -2.3 82
2020-01-08 14:00:00 14.9 10 Sur 26 Sudeste 0 1016.7 -1.9 83
2020-01-08 13:00:00 14.2 9 Sur 22 Sur 0 1017.6 -0.6 85
2020-01-08 12:00:00 13.2 8 Sur 18 Sudeste 0 1018.4 0.4 88
2020-01-08 11:00:00 12.4 9 Sur 22 Sur 0 1018.6 0.7 89
2020-01-08 10:00:00 11.9 14 Sur 24 Sur 0 1018.2 0.6 90
2020-01-08 09:00:00 11.5 11 Sur 24 Sur 0 1018 0.2 91
2020-01-08 08:00:00 11.3 9 Sur 30 Sur 0 1017.9 0 91
2020-01-08 07:00:00 11.3 14 Sur 18 Sur 0 1017.6 -0.8 90
2020-01-08 06:00:00 11.2 13 Sur 22 Sur 0 1017.8 -0.5 90
2020-01-08 05:00:00 10.9 15 Sur 18 Sur 0 1017.9 -0.4 93
2020-01-08 04:00:00 10.7 8 Sur 13 Sur 0 1018.4 -0.4 92
2020-01-08 03:00:00 10.8 3 Sur 17 Sur 0 1018.3 -0.8 91
2020-01-08 02:00:00 10.5 11 Sudeste 18 Sudeste 0 1018.3 -0.7 94
2020-01-08 01:00:00 10.7 9 Sudeste 26 Sudeste 0 1018.8 -0.5 94
2020-01-08 00:00:00 11.2 10 Sur 17 Sudeste 0 1019.1 -0.1 88
2020-01-07 23:00:00 11.1 10 Sudeste 17 Sur 0 1019 0 86
2020-01-07 22:00:00 11.1 7 Sur 15 Sudeste 0 1019.3 0.3 88
2020-01-07 21:00:00 11 9 Sudeste 22 Sudeste 0 1019.2 0.4 87
2020-01-07 20:00:00 10.8 9 Sur 18 Sur 0 1019 0.2 88
2020-01-07 19:00:00 11.1 13 Sur 28 Sur 0 1019 0.3 86
2020-01-07 18:00:00 11.9 8 Sur 18 Sur 0 1018.8 0 83
2020-01-07 17:00:00 12.5 12 Sur 21 Sudoeste 0 1018.8 -0.6 78
2020-01-07 16:00:00 14.1 7 Sur 18 Sudoeste 0 1018.7 -1.5 70
2020-01-07 15:00:00 13.8 14 Sudoeste 18 Sudoeste 0 1018.8 -2 70
2020-01-07 14:00:00 13.3 6 Sudeste 15 Sudeste 0 1019.4 -1.3 68
2020-01-07 13:00:00 11.8 8 Sur 18 Sur 0 1020.2 0.2 75
2020-01-07 12:00:00 9.9 11 Sudeste 18 Sudeste 0 1020.8 1.5 80
2020-01-07 11:00:00 7.5 11 Sudeste 22 Sudeste 0 1020.7 1.8 83
2020-01-07 10:00:00 5 10 Sur 18 Sur 0 1020 1.3 90
2020-01-07 09:00:00 4.2 5 Sur 11 Este 0 1019.3 0.1 93
2020-01-07 08:00:00 3.8 9 Sur 22 Sudeste 0 1018.9 -0.5 93
2020-01-07 07:00:00 3.6 11 Sur 22 Sudeste 0 1018.7 -1 95
2020-01-07 06:00:00 3.5 13 Sur 17 Sur 0 1019.2 -0.2 96
2020-01-07 05:00:00 4 11 Sur 15 Sur 0 1019.4 0 96
2020-01-07 04:00:00 3.8 9 Sur 15 Sur 0 1019.7 0.6 96
2020-01-07 03:00:00 4 9 Sur 13 Sur 0 1019.4 -0.1 96
2020-01-07 02:00:00 4.6 9 Sur 15 Sur 0 1019.4 0.1 95
2020-01-07 01:00:00 5.2 12 Sur 17 Sur 0 1019.1 0.1 94
2020-01-07 00:00:00 5.5 12 Sur 17 Sur 0 1019.5 0.4 94
2020-01-06 23:00:00 6.1 12 Sur 15 Sudeste 0 1019.3 0.3 93
2020-01-06 22:00:00 6.7 9 Sur 17 Sur 0 1019 0.6 92
2020-01-06 21:00:00 7.9 9 Sur 15 Sudeste 0 1019.1 1 88
2020-01-06 20:00:00 9 5 Sur 9 Sur 0 1019 1.4 84
2020-01-06 19:00:00 10.1 8 Sur 22 Sudeste 0 1018.4 1.5 80
2020-01-06 18:00:00 11.3 10 Sur 15 Sur 0 1018.1 1.7 77
2020-01-06 17:00:00 11.9 9 Sudoeste 17 Sudoeste 0 1017.6 1.2 76
2020-01-06 16:00:00 12.6 8 Sudoeste 17 Sudoeste 0 1016.9 -0.2 71
2020-01-06 15:00:00 13 11 Sudoeste 28 Sudoeste 0 1016.4 -1.9 68
2020-01-06 14:00:00 11.8 7 Sudeste 24 Sur 0 1016.4 -1.7 72
2020-01-06 13:00:00 8.8 15 Sudeste 37 Sudeste 0 1017.1 -0.3 83
2020-01-06 12:00:00 7.8 15 Sur 22 Sur 0 1018.3 1.5 87
2020-01-06 11:00:00 6.6 12 Sur 18 Sur 0 1018.1 1.8 91
2020-01-06 10:00:00 6 12 Sur 21 Sur 0 1017.4 1.3 92